Time,TemperatureF,DewpointF,PressureIn,WindDirection,WindDirectionDegrees,WindSpeedMPH,WindSpeedGustMPH,Humidity,HourlyPrecipIn,Conditions,Clouds,dailyrainin,SolarRadiationWatts/m^2,SoftwareType,DateUTC
2013-03-23 00:02:00,32.0,6.0,-100.00,North,353,19.0,30.0,33,0.00,,,-99.99,0.000000,,2013-03-23 06:02:00,
2013-03-23 00:12:00,32.0,6.0,-100.00,North,353,19.0,30.0,33,0.00,,,-99.99,0.000000,,2013-03-23 06:12:00,
2013-03-23 00:22:00,32.0,6.0,-100.00,North,353,19.0,30.0,33,0.00,,,-99.99,0.000000,,2013-03-23 06:22:00,
2013-03-23 00:32:00,32.0,6.0,-100.00,North,353,19.0,30.0,33,0.00,,,-99.99,0.000000,,2013-03-23 06:32:00,
2013-03-23 00:42:00,32.0,6.0,-100.00,North,353,19.0,30.0,33,0.00,,,-99.99,0.000000,,2013-03-23 06:42:00,
2013-03-23 01:02:00,30.0,3.0,-100.00,North,6,16.0,30.0,31,0.00,,,0.00,0.000000,,2013-03-23 07:02:00,
2013-03-23 01:12:00,30.0,3.0,-100.00,North,6,16.0,30.0,31,0.00,,,0.00,0.000000,,2013-03-23 07:12:00,
2013-03-23 01:22:00,30.0,3.0,-100.00,North,6,16.0,30.0,31,0.00,,,0.00,0.000000,,2013-03-23 07:22:00,
2013-03-23 01:32:00,30.0,3.0,-100.00,North,6,16.0,30.0,31,0.00,,,0.00,0.000000,,2013-03-23 07:32:00,
2013-03-23 01:42:00,30.0,3.0,-100.00,North,6,16.0,30.0,31,0.00,,,0.00,0.000000,,2013-03-23 07:42:00,
2013-03-23 02:02:00,28.0,-1.0,-100.00,North,349,16.0,32.0,28,0.00,,,0.00,0.000000,,2013-03-23 08:02:00,
2013-03-23 02:12:00,28.0,-1.0,-100.00,North,349,16.0,32.0,28,0.00,,,0.00,0.000000,,2013-03-23 08:12:00,
2013-03-23 02:22:00,28.0,-1.0,-100.00,North,349,16.0,32.0,28,0.00,,,0.00,0.000000,,2013-03-23 08:22:00,
2013-03-23 02:32:00,28.0,-1.0,-100.00,North,349,16.0,32.0,28,0.00,,,0.00,0.000000,,2013-03-23 08:32:00,
2013-03-23 02:42:00,28.0,-1.0,-100.00,North,349,16.0,32.0,28,0.00,,,0.00,0.000000,,2013-03-23 08:42:00,
2013-03-23 03:02:00,27.0,2.0,-100.00,North,356,14.0,32.0,33,0.00,,,0.00,0.000000,,2013-03-23 09:02:00,
2013-03-23 03:12:00,27.0,2.0,-100.00,North,356,14.0,32.0,33,0.00,,,0.00,0.000000,,2013-03-23 09:12:00,
2013-03-23 03:22:00,27.0,2.0,-100.00,North,356,14.0,32.0,33,0.00,,,0.00,0.000000,,2013-03-23 09:22:00,
2013-03-23 03:32:00,27.0,2.0,-100.00,North,356,14.0,32.0,33,0.00,,,0.00,0.000000,,2013-03-23 09:32:00,
2013-03-23 03:42:00,27.0,2.0,-100.00,North,356,14.0,32.0,33,0.00,,,0.00,0.000000,,2013-03-23 09:42:00,
2013-03-23 04:03:00,26.0,-5.0,-100.00,West,261,12.0,25.0,25,0.00,,,0.00,0.000000,,2013-03-23 10:03:00,
2013-03-23 04:12:00,26.0,-5.0,-100.00,West,261,12.0,25.0,25,0.00,,,0.00,0.000000,,2013-03-23 10:12:00,
2013-03-23 04:23:00,26.0,-5.0,-100.00,West,261,12.0,25.0,25,0.00,,,0.00,0.000000,,2013-03-23 10:23:00,
2013-03-23 04:33:00,26.0,-5.0,-100.00,West,261,12.0,25.0,25,0.00,,,0.00,0.000000,,2013-03-23 10:33:00,
2013-03-23 04:42:00,26.0,-5.0,-100.00,West,261,12.0,25.0,25,0.00,,,0.00,0.000000,,2013-03-23 10:42:00,
2013-03-23 05:03:00,24.0,-7.0,-100.00,NNW,345,12.0,24.0,25,0.00,,,0.00,0.000000,,2013-03-23 11:03:00,
2013-03-23 05:12:00,24.0,-7.0,-100.00,NNW,345,12.0,24.0,25,0.00,,,0.00,0.000000,,2013-03-23 11:12:00,
2013-03-23 05:22:00,24.0,-7.0,-100.00,NNW,345,12.0,24.0,25,0.00,,,0.00,0.000000,,2013-03-23 11:22:00,
2013-03-23 05:32:00,24.0,-7.0,-100.00,NNW,345,12.0,24.0,25,0.00,,,0.00,0.000000,,2013-03-23 11:32:00,
2013-03-23 05:41:00,24.0,-7.0,-100.00,NNW,345,12.0,24.0,25,0.00,,,0.00,0.000000,,2013-03-23 11:41:00,
2013-03-23 06:02:00,21.0,-6.0,-100.00,NNW,331,8.0,17.0,29,0.00,,,0.00,0.000000,,2013-03-23 12:02:00,
2013-03-23 06:12:00,21.0,-6.0,-100.00,NNW,331,8.0,17.0,29,0.00,,,0.00,0.000000,,2013-03-23 12:12:00,
2013-03-23 06:22:00,21.0,-6.0,-100.00,NNW,331,8.0,17.0,29,0.00,,,0.00,0.000000,,2013-03-23 12:22:00,
2013-03-23 06:33:00,21.0,-6.0,-100.00,NNW,331,8.0,17.0,29,0.00,,,0.00,0.000000,,2013-03-23 12:33:00,
2013-03-23 06:42:00,21.0,-6.0,-100.00,NNW,331,8.0,17.0,29,0.00,,,0.00,0.000000,,2013-03-23 12:42:00,
2013-03-23 07:12:00,20.0,-7.0,-100.00,NW,325,7.0,23.0,29,0.00,,,0.00,0.000000,,2013-03-23 13:12:00,
2013-03-23 07:22:00,20.0,-7.0,-100.00,NW,325,7.0,23.0,29,0.00,,,0.00,0.000000,,2013-03-23 13:22:00,
2013-03-23 07:32:00,20.0,-7.0,-100.00,NW,325,7.0,23.0,29,0.00,,,0.00,0.000000,,2013-03-23 13:32:00,
2013-03-23 07:42:00,20.0,-7.0,-100.00,NW,325,7.0,23.0,29,0.00,,,0.00,0.000000,,2013-03-23 13:42:00,
2013-03-23 08:12:00,21.0,-9.0,-100.00,NW,317,8.0,14.0,25,0.00,,,0.00,2.000000,,2013-03-23 14:12:00,
2013-03-23 08:22:00,21.0,-9.0,-100.00,NW,317,8.0,14.0,25,0.00,,,0.00,2.000000,,2013-03-23 14:22:00,
2013-03-23 08:32:00,21.0,-9.0,-100.00,NW,317,8.0,14.0,25,0.00,,,0.00,2.000000,,2013-03-23 14:32:00,
2013-03-23 08:42:00,21.0,-9.0,-100.00,NW,317,8.0,14.0,25,0.00,,,0.00,2.000000,,2013-03-23 14:42:00,
2013-03-23 09:03:00,25.0,-5.0,-100.00,NW,323,13.0,23.0,26,0.00,,,0.00,29.000000,,2013-03-23 15:03:00,
2013-03-23 09:12:00,25.0,-5.0,-100.00,NW,323,13.0,23.0,26,0.00,,,0.00,29.000000,,2013-03-23 15:12:00,
2013-03-23 09:22:00,25.0,-5.0,-100.00,NW,323,13.0,23.0,26,0.00,,,0.00,29.000000,,2013-03-23 15:22:00,
2013-03-23 09:33:00,25.0,-5.0,-100.00,NW,323,13.0,23.0,26,0.00,,,0.00,29.000000,,2013-03-23 15:33:00,
2013-03-23 09:43:00,25.0,-5.0,-100.00,NW,323,13.0,23.0,26,0.00,,,0.00,29.000000,,2013-03-23 15:43:00,
2013-03-23 10:03:00,28.0,-4.0,-100.00,NW,315,13.0,26.0,24,0.00,,,-99.99,211.000000,,2013-03-23 16:03:00,
2013-03-23 10:12:00,28.0,-4.0,-100.00,NW,315,13.0,26.0,24,0.00,,,-99.99,211.000000,,2013-03-23 16:12:00,
2013-03-23 10:22:00,28.0,-4.0,-100.00,NW,315,13.0,26.0,24,0.00,,,-99.99,211.000000,,2013-03-23 16:22:00,
2013-03-23 10:32:00,28.0,-4.0,-100.00,NW,315,13.0,26.0,24,0.00,,,-99.99,211.000000,,2013-03-23 16:32:00,
2013-03-23 10:42:00,28.0,-4.0,-100.00,NW,315,13.0,26.0,24,0.00,,,-99.99,211.000000,,2013-03-23 16:42:00,
2013-03-23 11:02:00,31.0,-2.0,-100.00,NNW,335,11.0,23.0,23,0.00,,,0.00,560.000000,,2013-03-23 17:02:00,
2013-03-23 11:12:00,31.0,-2.0,-100.00,NNW,335,11.0,23.0,23,0.00,,,0.00,560.000000,,2013-03-23 17:12:00,
2013-03-23 11:22:00,31.0,-2.0,-100.00,NNW,335,11.0,23.0,23,0.00,,,0.00,560.000000,,2013-03-23 17:22:00,
2013-03-23 11:32:00,31.0,-2.0,-100.00,NNW,335,11.0,23.0,23,0.00,,,0.00,560.000000,,2013-03-23 17:32:00,
2013-03-23 11:42:00,31.0,-2.0,-100.00,NNW,335,11.0,23.0,23,0.00,,,0.00,560.000000,,2013-03-23 17:42:00,
2013-03-23 12:03:00,32.0,-3.0,-100.00,NNW,327,16.0,26.0,21,0.00,,,0.00,841.000000,,2013-03-23 18:03:00,
2013-03-23 12:12:00,32.0,-3.0,-100.00,NNW,327,16.0,26.0,21,0.00,,,0.00,841.000000,,2013-03-23 18:12:00,
2013-03-23 12:22:00,32.0,-3.0,-100.00,NNW,327,16.0,26.0,21,0.00,,,0.00,841.000000,,2013-03-23 18:22:00,
2013-03-23 12:32:00,32.0,-3.0,-100.00,NNW,327,16.0,26.0,21,0.00,,,0.00,841.000000,,2013-03-23 18:32:00,
2013-03-23 13:12:00,34.0,-6.0,-100.00,NW,316,18.0,30.0,17,0.00,,,0.00,1079.000000,,2013-03-23 19:12:00,
2013-03-23 13:22:00,34.0,-6.0,-100.00,NW,316,18.0,30.0,17,0.00,,,0.00,1079.000000,,2013-03-23 19:22:00,
2013-03-23 13:32:00,34.0,-6.0,-100.00,NW,316,18.0,30.0,17,0.00,,,0.00,1079.000000,,2013-03-23 19:32:00,
2013-03-23 13:42:00,34.0,-6.0,-100.00,NW,316,18.0,30.0,17,0.00,,,0.00,1079.000000,,2013-03-23 19:42:00,
2013-03-23 14:02:00,33.0,-10.0,-100.00,NNW,331,15.0,29.0,15,0.00,,,0.00,1155.000000,,2013-03-23 20:02:00,
2013-03-23 14:12:00,33.0,-10.0,-100.00,NNW,331,15.0,29.0,15,0.00,,,0.00,1155.000000,,2013-03-23 20:12:00,
2013-03-23 14:22:00,33.0,-10.0,-100.00,NNW,331,15.0,29.0,15,0.00,,,0.00,1155.000000,,2013-03-23 20:22:00,
2013-03-23 14:32:00,33.0,-10.0,-100.00,NNW,331,15.0,29.0,15,0.00,,,0.00,1155.000000,,2013-03-23 20:32:00,
2013-03-23 14:42:00,33.0,-10.0,-100.00,NNW,331,15.0,29.0,15,0.00,,,0.00,1155.000000,,2013-03-23 20:42:00,
2013-03-23 15:02:00,36.0,-12.0,-100.00,NNW,334,12.0,29.0,12,0.00,,,0.00,1127.000000,,2013-03-23 21:02:00,
2013-03-23 15:12:00,36.0,-12.0,-100.00,NNW,334,12.0,29.0,12,0.00,,,0.00,1127.000000,,2013-03-23 21:12:00,
2013-03-23 15:22:00,36.0,-12.0,-100.00,NNW,334,12.0,29.0,12,0.00,,,0.00,1127.000000,,2013-03-23 21:22:00,
2013-03-23 15:32:00,36.0,-12.0,-100.00,NNW,334,12.0,29.0,12,0.00,,,0.00,1127.000000,,2013-03-23 21:32:00,
2013-03-23 15:42:00,36.0,-12.0,-100.00,NNW,334,12.0,29.0,12,0.00,,,0.00,1127.000000,,2013-03-23 21:42:00,
2013-03-23 16:02:00,39.0,-9.0,-100.00,NNW,333,14.0,34.0,12,0.00,,,0.00,1018.000000,,2013-03-23 22:02:00,
2013-03-23 16:12:00,39.0,-9.0,-100.00,NNW,333,14.0,34.0,12,0.00,,,0.00,1018.000000,,2013-03-23 22:12:00,
2013-03-23 16:23:00,39.0,-9.0,-100.00,NNW,333,14.0,34.0,12,0.00,,,0.00,1018.000000,,2013-03-23 22:23:00,
2013-03-23 16:32:00,39.0,-9.0,-100.00,NNW,333,14.0,34.0,12,0.00,,,0.00,1018.000000,,2013-03-23 22:32:00,
2013-03-23 17:12:00,33.0,-11.0,-100.00,NNW,332,9.0,28.0,14,-99.99,,,0.00,1005.000000,,2013-03-23 23:12:00,
2013-03-23 17:22:00,33.0,-11.0,-100.00,NNW,332,9.0,28.0,14,-99.99,,,0.00,1005.000000,,2013-03-23 23:22:00,
2013-03-23 17:32:00,33.0,-11.0,-100.00,NNW,332,9.0,28.0,14,-99.99,,,0.00,1005.000000,,2013-03-23 23:32:00,
2013-03-23 17:42:00,33.0,-11.0,-100.00,NNW,332,9.0,28.0,14,-99.99,,,0.00,1005.000000,,2013-03-23 23:42:00,
2013-03-23 18:02:00,36.0,-12.0,-100.00,NNW,345,13.0,24.0,12,0.00,,,0.00,468.000000,,2013-03-24 00:02:00,
2013-03-23 18:12:00,36.0,-12.0,-100.00,NNW,345,13.0,24.0,12,0.00,,,0.00,468.000000,,2013-03-24 00:12:00,
2013-03-23 18:22:00,36.0,-12.0,-100.00,NNW,345,13.0,24.0,12,0.00,,,0.00,468.000000,,2013-03-24 00:22:00,
2013-03-23 18:32:00,36.0,-12.0,-100.00,NNW,345,13.0,24.0,12,0.00,,,0.00,468.000000,,2013-03-24 00:32:00,
2013-03-23 18:42:00,36.0,-12.0,-100.00,NNW,345,13.0,24.0,12,0.00,,,0.00,468.000000,,2013-03-24 00:42:00,
2013-03-23 19:02:00,34.0,-10.0,-100.00,NNW,336,10.0,20.0,14,0.00,,,0.00,437.000000,,2013-03-24 01:02:00,
2013-03-23 19:12:00,34.0,-10.0,-100.00,NNW,336,10.0,20.0,14,0.00,,,0.00,437.000000,,2013-03-24 01:12:00,
2013-03-23 19:22:00,34.0,-10.0,-100.00,NNW,336,10.0,20.0,14,0.00,,,0.00,437.000000,,2013-03-24 01:22:00,
2013-03-23 19:32:00,34.0,-10.0,-100.00,NNW,336,10.0,20.0,14,0.00,,,0.00,437.000000,,2013-03-24 01:32:00,
2013-03-23 19:42:00,34.0,-10.0,-100.00,NNW,336,10.0,20.0,14,0.00,,,0.00,437.000000,,2013-03-24 01:42:00,
2013-03-23 20:02:00,29.0,-9.0,-100.00,NNW,347,6.0,14.0,18,0.00,,,0.00,116.000000,,2013-03-24 02:02:00,
2013-03-23 20:12:00,29.0,-9.0,-100.00,NNW,347,6.0,14.0,18,0.00,,,0.00,116.000000,,2013-03-24 02:12:00,
2013-03-23 20:21:00,29.0,-9.0,-100.00,NNW,347,6.0,14.0,18,0.00,,,0.00,116.000000,,2013-03-24 02:21:00,
2013-03-23 20:32:00,29.0,-9.0,-100.00,NNW,347,6.0,14.0,18,0.00,,,0.00,116.000000,,2013-03-24 02:32:00,
2013-03-23 20:42:00,29.0,-9.0,-100.00,NNW,347,6.0,14.0,18,0.00,,,0.00,116.000000,,2013-03-24 02:42:00,
2013-03-23 21:02:00,26.0,-9.0,-100.00,North,356,5.0,9.0,21,0.00,,,0.00,3.000000,,2013-03-24 03:02:00,
2013-03-23 21:12:00,26.0,-9.0,-100.00,North,356,5.0,9.0,21,0.00,,,0.00,3.000000,,2013-03-24 03:12:00,
2013-03-23 21:22:00,26.0,-9.0,-100.00,North,356,5.0,9.0,21,0.00,,,0.00,3.000000,,2013-03-24 03:22:00,
2013-03-23 21:33:00,26.0,-9.0,-100.00,North,356,5.0,9.0,21,0.00,,,0.00,3.000000,,2013-03-24 03:33:00,
2013-03-23 21:42:00,26.0,-9.0,-100.00,North,356,5.0,9.0,21,0.00,,,0.00,3.000000,,2013-03-24 03:42:00,
2013-03-23 22:02:00,26.0,-3.0,-100.00,NE,34,5.0,9.0,27,0.00,,,0.00,0.000000,,2013-03-24 04:02:00,
2013-03-23 22:12:00,26.0,-3.0,-100.00,NE,34,5.0,9.0,27,0.00,,,0.00,0.000000,,2013-03-24 04:12:00,
2013-03-23 22:22:00,26.0,-3.0,-100.00,NE,34,5.0,9.0,27,0.00,,,0.00,0.000000,,2013-03-24 04:22:00,
2013-03-23 22:32:00,26.0,-3.0,-100.00,NE,34,5.0,9.0,27,0.00,,,0.00,0.000000,,2013-03-24 04:32:00,
2013-03-23 22:42:00,26.0,-3.0,-100.00,NE,34,5.0,9.0,27,0.00,,,0.00,0.000000,,2013-03-24 04:42:00,
2013-03-23 23:02:00,24.0,-2.0,-100.00,NE,39,4.0,9.0,31,0.00,,,0.00,0.000000,,2013-03-24 05:02:00,
2013-03-23 23:12:00,24.0,-2.0,-100.00,NE,39,4.0,9.0,31,0.00,,,0.00,0.000000,,2013-03-24 05:12:00,
2013-03-23 23:22:00,24.0,-2.0,-100.00,NE,39,4.0,9.0,31,0.00,,,0.00,0.000000,,2013-03-24 05:22:00,
2013-03-23 23:32:00,24.0,-2.0,-100.00,NE,39,4.0,9.0,31,0.00,,,0.00,0.000000,,2013-03-24 05:32:00,
2013-03-23 23:42:00,24.0,-2.0,-100.00,NE,39,4.0,9.0,31,0.00,,,0.00,0.000000,,2013-03-24 05:42:00,